sim
Sign-in with your pilot id or email,
or register
Callsign
Passwort

Schedule Details

Flight Number: DLH2785 (2)
Departure: Marsa Alam International Airport (HEMA) at 12:30
Arrival: Munich Airport (EDDM) at 17:20
Route: Lufthansa Passenger Schedule. Enter filed route here before submitting Pirep.

Weather Information
Getting current METAR information for HEMA 241100Z 35021KT CAVOK 33/22 Q1008 NOSIG
Getting current METAR information for EDDM 241220Z VRB03KT 9999 FEW033 21/13 Q1009 NOSIG

Schedule Frequency

Route Map